createdAt,value
2016-06-03T17:22:41.943Z,80.57
2016-06-03T17:23:41.773Z,80.28
2016-06-03T17:24:41.776Z,80.47
2016-06-03T17:25:41.670Z,79.99
2016-06-03T17:26:41.593Z,79.7
2016-06-03T17:27:41.956Z,79.66
2016-06-03T17:28:41.959Z,79.7
2016-06-03T17:29:41.946Z,79.6
2016-06-03T17:30:41.948Z,79.6
2016-06-03T17:31:41.936Z,79.99
2016-06-03T17:32:41.939Z,79.8
2016-06-03T17:33:41.722Z,79.31
2016-06-03T17:34:41.726Z,79.22
2016-06-03T17:35:41.728Z,79.6
2016-06-03T17:36:41.918Z,79.7
2016-06-03T17:37:41.718Z,79.02
2016-06-03T17:38:41.705Z,78.92
2016-06-03T17:39:41.519Z,78.44
2016-06-03T17:40:41.366Z,79.12
2016-06-03T17:41:41.759Z,78.73
2016-06-03T17:42:41.511Z,78.58
2016-06-03T17:43:41.921Z,78.38
2016-06-03T17:44:41.783Z,78.09
2016-06-03T17:45:41.505Z,78
2016-06-03T17:46:41.726Z,77.9
2016-06-03T17:47:41.744Z,77.32
2016-06-03T17:48:41.810Z,77.61
2016-06-03T17:49:42.422Z,77.32
2016-06-03T17:50:41.908Z,77.36
2016-06-03T17:51:41.349Z,76.87
2016-06-03T17:52:41.757Z,76.78
2016-06-03T17:53:41.916Z,76.59
2016-06-03T17:54:42.701Z,76.87
2016-06-03T17:55:41.922Z,76.49
2016-06-03T17:56:42.128Z,76.29
2016-06-03T17:57:41.927Z,76.24
2016-06-03T17:58:41.711Z,75.85
2016-06-03T17:59:42.995Z,75.91
2016-06-03T18:00:41.529Z,75.46
2016-06-03T18:01:41.970Z,75.75
2016-06-03T18:02:41.926Z,75.65
2016-06-03T18:03:41.943Z,75.27
2016-06-03T18:04:43.180Z,74.98
2016-06-03T18:05:41.933Z,74.69
2016-06-03T18:06:41.734Z,74.49
2016-06-03T18:07:41.939Z,74.79
2016-06-03T18:08:41.535Z,74.49
2016-06-03T18:09:42.819Z,74.15
2016-06-03T18:10:41.947Z,74.21
2016-06-03T18:11:41.949Z,73.72
2016-06-03T18:12:41.733Z,73.85
2016-06-03T18:13:41.939Z,73.85
2016-06-03T18:14:41.536Z,73.95
2016-06-03T18:15:41.741Z,73.66
2016-06-03T18:16:41.588Z,73.08
2016-06-03T18:17:41.544Z,73.08
2016-06-03T18:18:41.766Z,73.18
2016-06-03T18:19:43.361Z,72.98
2016-06-03T18:20:41.958Z,73.27
2016-06-03T18:21:41.961Z,72.6
2016-06-03T18:22:41.791Z,72.79
2016-06-03T18:23:41.763Z,72.69
2016-06-03T18:24:41.546Z,72.79
2016-06-03T18:25:41.799Z,72.53
2016-06-03T18:26:42.099Z,72.5
2016-06-03T18:27:41.977Z,72.44
2016-06-03T18:28:41.574Z,72.02
2016-06-03T18:29:41.967Z,72.24
2016-06-03T18:30:41.985Z,71.76
2016-06-03T18:31:41.831Z,71.47
2016-06-03T18:32:41.568Z,71.86
2016-06-03T18:33:41.790Z,71.76
2016-06-03T18:34:43.027Z,71.95
2016-06-03T18:35:41.779Z,71.47
2016-06-03T18:36:41.782Z,71.86
2016-06-03T18:37:41.989Z,71.47
2016-06-03T18:38:41.787Z,71.28
2016-06-03T18:39:43.072Z,71.5
2016-06-03T18:40:42.387Z,71.31
2016-06-03T18:41:41.811Z,71.41
2016-06-03T18:42:41.595Z,71.37
2016-06-03T18:43:42.020Z,71.28
2016-06-03T18:44:41.804Z,71.02
2016-06-03T18:45:41.806Z,70.63
2016-06-03T18:46:41.808Z,70.83
2016-06-03T18:47:42.016Z,70.92
2016-06-03T18:48:42.019Z,70.54
2016-06-03T18:49:41.817Z,70.44
2016-06-03T18:50:41.632Z,70.54
2016-06-03T18:51:41.619Z,70.63
2016-06-03T18:52:41.841Z,70.34
2016-06-03T18:53:42.032Z,70.34
2016-06-03T18:54:42.049Z,69.85
2016-06-03T18:55:42.052Z,70.25
2016-06-03T18:56:42.039Z,70.25
2016-06-03T18:57:42.058Z,69.85
2016-06-03T18:58:41.841Z,70.34
2016-06-03T18:59:41.844Z,69.85
2016-06-03T19:00:41.863Z,69.85
2016-06-03T19:01:41.865Z,69.76
2016-06-03T19:02:41.648Z,69.6
2016-06-03T19:03:42.073Z,69.85
2016-06-03T19:04:42.076Z,69.76
2016-06-03T19:05:41.876Z,69.7
2016-06-03T19:06:41.676Z,69.67
2016-06-03T19:07:41.679Z,69.76
2016-06-03T19:08:41.665Z,69.57
2016-06-03T19:09:42.075Z,69.7
2016-06-03T19:10:41.889Z,69.67
2016-06-03T19:11:41.892Z,69.6
2016-06-03T19:12:42.098Z,69.76
2016-06-03T19:13:41.897Z,69.31
2016-06-03T19:14:42.103Z,69.31
2016-06-03T19:15:42.105Z,69.02
2016-06-03T19:16:41.906Z,69.41
2016-06-03T19:17:41.705Z,69.12
2016-06-03T19:18:41.708Z,69.02
2016-06-03T19:19:41.711Z,69.02
2016-06-03T19:20:41.698Z,69.02
2016-06-03T19:21:42.122Z,68.82
2016-06-03T19:22:42.171Z,69.02
2016-06-03T19:23:41.706Z,69.21
2016-06-03T19:24:41.927Z,69.12
2016-06-03T19:25:42.132Z,69.02
2016-06-03T19:26:42.432Z,69.21
2016-06-03T19:27:41.732Z,69.02
2016-06-03T19:28:42.140Z,69.02
2016-06-03T19:29:41.940Z,69.31
2016-06-03T19:30:41.740Z,69.21
2016-06-03T19:31:41.946Z,69.02
2016-06-03T19:32:42.152Z,68.54
2016-06-03T19:33:41.951Z,68.73
2016-06-03T19:34:41.751Z,68.73
2016-06-03T19:35:42.160Z,68.34
2016-06-03T19:36:41.959Z,68.73
2016-06-03T19:37:42.165Z,68.73
2016-06-03T19:38:42.168Z,68.73
2016-06-03T19:39:42.201Z,68.63
2016-06-03T19:40:41.970Z,68.63
2016-06-03T19:41:42.019Z,68.54
2016-06-03T19:42:41.975Z,68.73
2016-06-03T19:43:42.181Z,68.73
2016-06-03T19:44:42.183Z,68.54
2016-06-03T19:45:41.780Z,68.63
2016-06-03T19:46:41.986Z,68.54
2016-06-03T19:47:41.786Z,68.54
2016-06-03T19:48:42.008Z,68.82
2016-06-03T19:49:41.995Z,68.73
2016-06-03T19:50:42.200Z,68.73
2016-06-03T19:51:42.203Z,68.24
2016-06-03T19:52:41.799Z,68.44
2016-06-03T19:53:42.005Z,68.24
2016-06-03T19:54:41.805Z,68.24
2016-06-03T19:55:41.979Z,68.34
2016-06-03T19:56:41.872Z,68.44
2016-06-03T19:57:41.812Z,68.34
2016-06-03T19:58:42.222Z,68.34
2016-06-03T19:59:42.068Z,68.34
2016-06-03T20:00:42.227Z,68.44
2016-06-03T20:01:42.230Z,68.44
2016-06-03T20:02:42.029Z,68.34
2016-06-03T20:03:42.048Z,68.24
2016-06-03T20:04:42.035Z,68.54
2016-06-03T20:05:41.897Z,68.24
2016-06-03T20:06:41.852Z,68.34
2016-06-03T20:07:41.856Z,68.44
2016-06-03T20:08:41.858Z,68.34
2016-06-03T20:09:42.064Z,68.44
2016-06-03T20:10:42.254Z,68.34
2016-06-03T20:11:42.273Z,68.34
2016-06-03T20:12:42.259Z,68.34
2016-06-03T20:13:42.058Z,68.24
2016-06-03T20:14:42.078Z,68.34
2016-06-03T20:15:42.298Z,68.24
2016-06-03T20:16:42.270Z,68.24
2016-06-03T20:17:41.882Z,68.44
2016-06-03T20:18:42.275Z,68.54
2016-06-03T20:19:42.294Z,68.34
2016-06-03T20:20:42.281Z,68.34
2016-06-03T20:21:41.877Z,68.44
2016-06-03T20:22:41.942Z,68.54
2016-06-03T20:23:42.101Z,68.44
2016-06-03T20:24:42.088Z,68.44
2016-06-03T20:25:41.950Z,68.54
2016-06-03T20:26:42.625Z,68.44
2016-06-03T20:27:42.096Z,68.54
2016-06-03T20:28:42.318Z,68.34
2016-06-03T20:29:41.915Z,68.44
2016-06-03T20:30:42.308Z,68.54
2016-06-03T20:31:41.904Z,68.24
2016-06-03T20:32:42.328Z,68.24
2016-06-03T20:33:42.128Z,68.15
2016-06-03T20:34:42.131Z,68.05
2016-06-03T20:35:42.337Z,68.15
2016-06-03T20:36:42.355Z,68.05
2016-06-03T20:37:42.342Z,68.44
2016-06-03T20:38:42.142Z,68.44
2016-06-03T20:39:42.348Z,68.3
2016-06-03T20:40:42.459Z,68.05
2016-06-03T20:41:41.993Z,68.21
2016-06-03T20:42:42.152Z,68.24
2016-06-03T20:43:41.953Z,68.02
2016-06-03T20:44:42.362Z,68.12
2016-06-03T20:45:42.363Z,68.34
2016-06-03T20:46:42.164Z,68.4
2016-06-03T20:47:42.166Z,68.3
2016-06-03T20:48:42.012Z,68.21
2016-06-03T20:49:42.172Z,68.4
2016-06-03T20:50:41.972Z,68.15
2016-06-03T20:51:42.177Z,68.3
2016-06-03T20:52:42.383Z,68.3
2016-06-03T20:53:42.025Z,68.5
2016-06-03T20:54:42.185Z,68.4
2016-06-03T20:55:42.563Z,68.5
2016-06-03T20:56:42.191Z,68.5
2016-06-03T20:57:42.396Z,68.12
2016-06-03T20:58:42.180Z,68.21
2016-06-03T20:59:41.996Z,68.4
2016-06-03T21:00:42.201Z,68.21
2016-06-03T21:01:42.204Z,68.3
2016-06-03T21:02:42.003Z,68.21
2016-06-03T21:03:42.256Z,68.3
2016-06-03T21:04:42.212Z,68.5
2016-06-03T21:05:42.418Z,68.12
2016-06-03T21:06:42.029Z,68.4
2016-06-03T21:07:42.220Z,68.21
2016-06-03T21:08:42.426Z,68.21
2016-06-03T21:09:42.428Z,68.4
2016-06-03T21:10:42.431Z,68.4
2016-06-03T21:11:42.387Z,68.3
2016-06-03T21:12:42.030Z,68.3
2016-06-03T21:13:42.236Z,68.4
2016-06-03T21:14:42.239Z,68.21
2016-06-03T21:15:42.445Z,68.3
2016-06-03T21:16:42.041Z,68.4
2016-06-03T21:17:42.247Z,68.02
2016-06-03T21:18:42.249Z,68.02
2016-06-03T21:19:42.455Z,68.3
2016-06-03T21:20:42.458Z,68.79
2016-06-03T21:21:42.460Z,68.02
2016-06-03T21:22:42.260Z,68.12
2016-06-03T21:23:42.263Z,68.3
2016-06-03T21:24:42.469Z,68.7
2016-06-03T21:25:42.472Z,68.79
2016-06-03T21:26:42.068Z,68.79
2016-06-03T21:27:42.274Z,68.6
2016-06-03T21:28:42.260Z,68.7
2016-06-03T21:29:42.076Z,68.66
2016-06-03T21:30:42.282Z,68.56
2016-06-03T21:31:42.534Z,68.56
2016-06-03T21:32:42.287Z,68.7
2016-06-03T21:33:42.493Z,68.76
2016-06-03T21:34:42.277Z,68.47
2016-06-03T21:35:42.498Z,68.47
2016-06-03T21:36:42.501Z,68.56
2016-06-03T21:37:42.301Z,68.7
2016-06-03T21:38:42.304Z,68.56
2016-06-03T21:39:42.306Z,68.76
2016-06-03T21:40:43.137Z,68.47
2016-06-03T21:41:43.217Z,68.56
2016-06-03T21:42:42.111Z,68.76
2016-06-03T21:43:42.317Z,68.56
2016-06-03T21:44:42.319Z,68.66
2016-06-03T21:45:42.306Z,68.56
2016-06-03T21:46:42.122Z,68.47
2016-06-03T21:47:42.328Z,68.47
2016-06-03T21:48:42.314Z,68.56
2016-06-03T21:49:42.520Z,68.66
2016-06-03T21:50:42.523Z,68.66
2016-06-03T21:51:42.136Z,68.56
2016-06-03T21:52:42.544Z,68.56
2016-06-03T21:53:42.328Z,68.66
2016-06-03T21:54:42.346Z,68.47
2016-06-03T21:55:42.161Z,68.56
2016-06-03T21:56:42.508Z,68.56
2016-06-03T21:57:42.339Z,68.66
2016-06-03T21:58:42.544Z,68.76
2016-06-03T21:59:42.547Z,68.66
2016-06-03T22:00:42.363Z,68.47
2016-06-03T22:01:42.365Z,68.37
2016-06-03T22:02:42.555Z,68.37
2016-06-03T22:03:42.355Z,68.37
2016-06-03T22:04:42.357Z,68.27
2016-06-03T22:05:42.157Z,68.27
2016-06-03T22:06:42.362Z,68.56
2016-06-03T22:07:42.584Z,68.27
2016-06-03T22:08:42.368Z,68.37
2016-06-03T22:09:42.371Z,68.37
2016-06-03T22:10:43.529Z,68.37
2016-06-03T22:11:42.376Z,68.76
2016-06-03T22:12:42.582Z,68.37
2016-06-03T22:13:42.195Z,68.47
2016-06-03T22:14:42.384Z,68.37
2016-06-03T22:15:42.589Z,68.47
2016-06-03T22:16:42.592Z,68.66
2016-06-03T22:17:42.595Z,68.66
2016-06-03T22:18:42.598Z,68.85
2016-06-03T22:19:42.398Z,68.66
2016-06-03T22:20:42.603Z,68.95
2016-06-03T22:21:42.622Z,68.76
2016-06-03T22:22:42.203Z,69.11
2016-06-03T22:23:42.424Z,68.82
2016-06-03T22:24:42.614Z,69.01
2016-06-03T22:25:42.445Z,68.95
2016-06-03T22:26:42.619Z,68.91
2016-06-03T22:27:42.419Z,68.91
2016-06-03T22:28:42.422Z,68.91
2016-06-03T22:29:42.628Z,68.95
2016-06-03T22:30:42.427Z,68.91
2016-06-03T22:31:42.430Z,68.91
2016-06-03T22:32:42.620Z,69.01
2016-06-03T22:33:42.435Z,68.82
2016-06-03T22:34:42.641Z,68.91
2016-06-03T22:35:42.237Z,68.91
2016-06-03T22:36:42.444Z,68.91
2016-06-03T22:37:42.446Z,68.91
2016-06-03T22:38:42.229Z,68.91
2016-06-03T22:39:42.435Z,68.73
2016-06-03T22:40:42.673Z,68.82
2016-06-03T22:41:42.457Z,68.82
2016-06-03T22:42:42.460Z,68.73
2016-06-03T22:43:42.259Z,68.73
2016-06-03T22:44:42.449Z,68.91
2016-06-03T22:45:42.452Z,68.91
2016-06-03T22:46:42.470Z,68.73
2016-06-03T22:47:42.676Z,68.91
2016-06-03T22:48:42.492Z,68.91
2016-06-03T22:49:42.666Z,68.82
2016-06-03T22:50:42.465Z,68.91
2016-06-03T22:51:42.468Z,68.91
2016-06-03T22:52:42.674Z,68.91
2016-06-03T22:53:42.474Z,69.11
2016-06-03T22:54:42.680Z,68.91
2016-06-03T22:55:43.150Z,69.01
2016-06-03T22:56:42.981Z,69.01
2016-06-03T22:57:42.484Z,68.82
2016-06-03T22:58:42.284Z,68.91
2016-06-03T22:59:42.537Z,68.91
2016-06-03T23:00:42.273Z,68.82
2016-06-03T23:01:42.494Z,68.82
2016-06-03T23:02:42.497Z,69.11
2016-06-03T23:03:42.485Z,68.91
2016-06-03T23:04:42.487Z,68.91
2016-06-03T23:05:42.522Z,68.82
2016-06-03T23:06:42.712Z,68.91
2016-06-03T23:07:42.495Z,69.01
2016-06-03T23:08:42.499Z,68.91
2016-06-03T23:09:42.704Z,68.91
2016-06-03T23:10:42.801Z,68.79
2016-06-03T23:11:42.506Z,69.08
2016-06-03T23:12:42.509Z,69.17
2016-06-03T23:13:42.512Z,68.98
2016-06-03T23:14:42.515Z,69.08
2016-06-03T23:15:42.501Z,68.88
2016-06-03T23:16:42.317Z,68.88
2016-06-03T23:17:42.726Z,68.79
2016-06-03T23:18:42.323Z,68.88
2016-06-03T23:19:42.528Z,68.69
2016-06-03T23:20:42.734Z,68.69
2016-06-03T23:21:42.736Z,68.88
2016-06-03T23:22:42.739Z,69.17
2016-06-03T23:23:42.742Z,68.79
2016-06-03T23:24:42.541Z,69.27
2016-06-03T23:25:42.404Z,68.88
2016-06-03T23:26:43.156Z,69.08
2016-06-03T23:27:42.737Z,69.27
2016-06-03T23:28:42.536Z,69.08
2016-06-03T23:29:42.555Z,69.08
2016-06-03T23:30:42.557Z,69.17
2016-06-03T23:31:42.747Z,69.08
2016-06-03T23:32:42.563Z,69.27
2016-06-03T23:33:42.347Z,68.88
2016-06-03T23:34:42.755Z,69.17
2016-06-03T23:35:42.555Z,69.56
2016-06-03T23:36:42.557Z,69.27
2016-06-03T23:37:42.560Z,69.17
2016-06-03T23:38:42.766Z,68.98
2016-06-03T23:39:42.769Z,69.08
2016-06-03T23:40:43.538Z,69.08
2016-06-03T23:41:42.415Z,69.08
2016-06-03T23:42:42.355Z,69.17
2016-06-03T23:43:42.561Z,69.17
2016-06-03T23:44:42.376Z,69.27
2016-06-03T23:45:42.770Z,69.27
2016-06-03T23:46:42.570Z,69.08
2016-06-03T23:47:42.587Z,68.98
2016-06-03T23:48:42.778Z,68.88
2016-06-03T23:49:42.781Z,69.27
2016-06-03T23:50:42.580Z,69.27
2016-06-03T23:51:42.379Z,68.98
2016-06-03T23:52:42.382Z,68.98
2016-06-03T23:53:42.588Z,68.98
2016-06-03T23:54:42.794Z,69.17
2016-06-03T23:55:42.406Z,68.98
2016-06-03T23:56:42.596Z,69.17
2016-06-03T23:57:42.599Z,69.27
2016-06-03T23:58:42.805Z,69.27
2016-06-03T23:59:42.808Z,69.27
